sensor_id;sensor_type;location;lat;lon;timestamp;P1;durP1;ratioP1;P2;durP2;ratioP2
75248;SDS011;63845;55.688;37.578;2022-11-03T00:00:28;4.72;;;3.40;;
75248;SDS011;63845;55.688;37.578;2022-11-03T00:02:54;6.18;;;3.25;;
75248;SDS011;63845;55.688;37.578;2022-11-03T00:05:19;6.10;;;3.35;;
75248;SDS011;63845;55.688;37.578;2022-11-03T00:08:03;5.18;;;3.35;;
75248;SDS011;63845;55.688;37.578;2022-11-03T00:10:29;4.72;;;3.30;;
75248;SDS011;63845;55.688;37.578;2022-11-03T00:12:55;4.45;;;3.10;;
75248;SDS011;63845;55.688;37.578;2022-11-03T00:15:21;4.68;;;3.33;;
75248;SDS011;63845;55.688;37.578;2022-11-03T00:17:46;4.28;;;3.30;;
75248;SDS011;63845;55.688;37.578;2022-11-03T00:20:12;5.90;;;3.30;;
75248;SDS011;63845;55.688;37.578;2022-11-03T00:22:37;4.15;;;3.13;;
75248;SDS011;63845;55.688;37.578;2022-11-03T00:25:03;4.38;;;2.88;;
75248;SDS011;63845;55.688;37.578;2022-11-03T00:27:29;4.82;;;2.97;;
75248;SDS011;63845;55.688;37.578;2022-11-03T00:29:54;4.03;;;3.10;;
75248;SDS011;63845;55.688;37.578;2022-11-03T00:32:20;4.38;;;2.92;;
75248;SDS011;63845;55.688;37.578;2022-11-03T00:34:45;5.05;;;3.05;;
75248;SDS011;63845;55.688;37.578;2022-11-03T00:37:11;5.32;;;3.35;;
75248;SDS011;63845;55.688;37.578;2022-11-03T00:39:37;5.28;;;3.08;;
75248;SDS011;63845;55.688;37.578;2022-11-03T00:42:02;4.22;;;3.22;;
75248;SDS011;63845;55.688;37.578;2022-11-03T00:44:28;4.05;;;2.83;;
75248;SDS011;63845;55.688;37.578;2022-11-03T00:46:56;4.38;;;2.90;;
75248;SDS011;63845;55.688;37.578;2022-11-03T00:49:21;3.60;;;2.50;;
75248;SDS011;63845;55.688;37.578;2022-11-03T00:51:47;4.95;;;3.10;;
75248;SDS011;63845;55.688;37.578;2022-11-03T00:54:12;3.97;;;2.90;;
75248;SDS011;63845;55.688;37.578;2022-11-03T00:56:38;4.60;;;3.00;;
75248;SDS011;63845;55.688;37.578;2022-11-03T00:59:05;3.67;;;2.80;;
75248;SDS011;63845;55.688;37.578;2022-11-03T01:01:34;3.65;;;2.95;;
75248;SDS011;63845;55.688;37.578;2022-11-03T01:04:07;3.92;;;2.75;;
75248;SDS011;63845;55.688;37.578;2022-11-03T01:06:52;4.40;;;3.35;;
75248;SDS011;63845;55.688;37.578;2022-11-03T01:09:21;3.85;;;2.75;;
75248;SDS011;63845;55.688;37.578;2022-11-03T01:12:06;3.92;;;2.72;;
75248;SDS011;63845;55.688;37.578;2022-11-03T01:16:57;3.90;;;3.00;;
75248;SDS011;63845;55.688;37.578;2022-11-03T01:19:23;4.88;;;3.28;;
75248;SDS011;63845;55.688;37.578;2022-11-03T01:21:49;5.53;;;2.85;;
75248;SDS011;63845;55.688;37.578;2022-11-03T01:24:16;4.18;;;2.60;;
75248;SDS011;63845;55.688;37.578;2022-11-03T01:26:41;4.18;;;2.60;;
75248;SDS011;63845;55.688;37.578;2022-11-03T01:29:06;4.97;;;2.72;;
75248;SDS011;63845;55.688;37.578;2022-11-03T01:31:32;4.28;;;3.17;;
75248;SDS011;63845;55.688;37.578;2022-11-03T01:33:58;4.05;;;2.78;;
75248;SDS011;63845;55.688;37.578;2022-11-03T01:36:23;4.55;;;3.00;;
75248;SDS011;63845;55.688;37.578;2022-11-03T01:38:50;4.20;;;3.40;;
75248;SDS011;63845;55.688;37.578;2022-11-03T01:41:17;4.28;;;2.95;;
75248;SDS011;63845;55.688;37.578;2022-11-03T01:44:22;3.50;;;2.40;;
75248;SDS011;63845;55.688;37.578;2022-11-03T01:46:52;4.03;;;2.55;;
75248;SDS011;63845;55.688;37.578;2022-11-03T01:49:46;4.20;;;2.72;;
75248;SDS011;63845;55.688;37.578;2022-11-03T01:54:47;3.47;;;2.78;;
75248;SDS011;63845;55.688;37.578;2022-11-03T01:57:17;4.55;;;2.63;;
75248;SDS011;63845;55.688;37.578;2022-11-03T01:59:46;4.97;;;2.80;;
75248;SDS011;63845;55.688;37.578;2022-11-03T02:02:13;3.90;;;2.72;;
75248;SDS011;63845;55.688;37.578;2022-11-03T02:04:38;3.85;;;2.88;;
75248;SDS011;63845;55.688;37.578;2022-11-03T02:07:49;4.65;;;2.90;;
75248;SDS011;63845;55.688;37.578;2022-11-03T02:09:53;3.50;;;2.60;;
75248;SDS011;63845;55.688;37.578;2022-11-03T02:12:19;3.85;;;2.30;;
75248;SDS011;63845;55.688;37.578;2022-11-03T02:14:51;5.68;;;2.60;;
75248;SDS011;63845;55.688;37.578;2022-11-03T02:17:20;3.75;;;2.40;;
75248;SDS011;63845;55.688;37.578;2022-11-03T02:19:53;3.40;;;1.90;;
75248;SDS011;63845;55.688;37.578;2022-11-03T02:25:30;3.00;;;2.28;;
75248;SDS011;63845;55.688;37.578;2022-11-03T02:27:55;3.85;;;2.30;;
75248;SDS011;63845;55.688;37.578;2022-11-03T02:30:21;3.92;;;2.28;;
75248;SDS011;63845;55.688;37.578;2022-11-03T02:35:58;3.08;;;2.15;;
75248;SDS011;63845;55.688;37.578;2022-11-03T02:38:30;4.07;;;1.90;;
75248;SDS011;63845;55.688;37.578;2022-11-03T02:41:00;3.67;;;2.08;;
75248;SDS011;63845;55.688;37.578;2022-11-03T02:43:29;3.88;;;2.10;;
75248;SDS011;63845;55.688;37.578;2022-11-03T02:45:55;3.58;;;2.17;;
75248;SDS011;63845;55.688;37.578;2022-11-03T02:48:21;2.88;;;2.10;;
75248;SDS011;63845;55.688;37.578;2022-11-03T02:50:47;3.83;;;2.10;;
75248;SDS011;63845;55.688;37.578;2022-11-03T02:53:15;2.72;;;2.05;;
75248;SDS011;63845;55.688;37.578;2022-11-03T02:55:50;3.15;;;2.22;;
75248;SDS011;63845;55.688;37.578;2022-11-03T03:03:57;3.42;;;2.20;;
75248;SDS011;63845;55.688;37.578;2022-11-03T03:06:27;3.38;;;2.10;;
75248;SDS011;63845;55.688;37.578;2022-11-03T03:08:59;8.07;;;2.40;;
75248;SDS011;63845;55.688;37.578;2022-11-03T03:11:28;3.85;;;2.67;;
75248;SDS011;63845;55.688;37.578;2022-11-03T03:14:19;4.03;;;2.78;;
75248;SDS011;63845;55.688;37.578;2022-11-03T03:22:01;4.10;;;2.90;;
75248;SDS011;63845;55.688;37.578;2022-11-03T03:24:36;4.05;;;2.95;;
75248;SDS011;63845;55.688;37.578;2022-11-03T03:27:09;4.10;;;2.83;;
75248;SDS011;63845;55.688;37.578;2022-11-03T03:29:45;4.13;;;2.65;;
75248;SDS011;63845;55.688;37.578;2022-11-03T03:32:16;4.75;;;2.65;;
75248;SDS011;63845;55.688;37.578;2022-11-03T03:34:46;4.35;;;2.80;;
75248;SDS011;63845;55.688;37.578;2022-11-03T03:37:14;4.13;;;2.50;;
75248;SDS011;63845;55.688;37.578;2022-11-03T03:39:42;3.72;;;2.58;;
75248;SDS011;63845;55.688;37.578;2022-11-03T03:42:12;4.88;;;2.90;;
75248;SDS011;63845;55.688;37.578;2022-11-03T03:44:40;5.00;;;3.20;;
75248;SDS011;63845;55.688;37.578;2022-11-03T03:47:12;5.03;;;3.65;;
75248;SDS011;63845;55.688;37.578;2022-11-03T03:49:43;4.55;;;3.50;;
75248;SDS011;63845;55.688;37.578;2022-11-03T03:52:09;4.40;;;3.10;;
75248;SDS011;63845;55.688;37.578;2022-11-03T03:54:35;5.07;;;3.55;;
75248;SDS011;63845;55.688;37.578;2022-11-03T03:57:02;5.78;;;4.00;;
75248;SDS011;63845;55.688;37.578;2022-11-03T03:59:29;5.13;;;3.67;;
75248;SDS011;63845;55.688;37.578;2022-11-03T04:01:54;5.75;;;3.80;;
75248;SDS011;63845;55.688;37.578;2022-11-03T04:04:20;7.05;;;4.32;;
75248;SDS011;63845;55.688;37.578;2022-11-03T04:06:46;5.28;;;4.00;;
75248;SDS011;63845;55.688;37.578;2022-11-03T04:09:11;9.02;;;4.00;;
75248;SDS011;63845;55.688;37.578;2022-11-03T04:11:37;6.88;;;3.83;;
75248;SDS011;63845;55.688;37.578;2022-11-03T04:14:34;5.13;;;3.25;;
75248;SDS011;63845;55.688;37.578;2022-11-03T04:17:19;4.90;;;3.10;;
75248;SDS011;63845;55.688;37.578;2022-11-03T04:20:05;5.45;;;2.88;;
75248;SDS011;63845;55.688;37.578;2022-11-03T04:22:55;4.50;;;3.42;;
75248;SDS011;63845;55.688;37.578;2022-11-03T04:25:20;4.35;;;3.13;;
75248;SDS011;63845;55.688;37.578;2022-11-03T04:27:46;3.78;;;2.75;;
75248;SDS011;63845;55.688;37.578;2022-11-03T04:30:14;4.95;;;3.28;;
75248;SDS011;63845;55.688;37.578;2022-11-03T04:32:51;6.63;;;2.70;;
75248;SDS011;63845;55.688;37.578;2022-11-03T04:37:53;4.57;;;2.60;;
75248;SDS011;63845;55.688;37.578;2022-11-03T04:40:22;5.03;;;2.80;;
75248;SDS011;63845;55.688;37.578;2022-11-03T04:42:48;4.63;;;2.80;;
75248;SDS011;63845;55.688;37.578;2022-11-03T04:45:21;4.88;;;3.10;;
75248;SDS011;63845;55.688;37.578;2022-11-03T04:47:49;6.90;;;3.20;;
75248;SDS011;63845;55.688;37.578;2022-11-03T04:50:19;4.95;;;3.00;;
75248;SDS011;63845;55.688;37.578;2022-11-03T04:52:47;7.18;;;3.58;;
75248;SDS011;63845;55.688;37.578;2022-11-03T04:55:16;5.32;;;3.60;;
75248;SDS011;63845;55.688;37.578;2022-11-03T04:57:43;6.47;;;3.50;;
75248;SDS011;63845;55.688;37.578;2022-11-03T05:00:12;7.57;;;2.92;;
75248;SDS011;63845;55.688;37.578;2022-11-03T05:02:45;8.40;;;3.35;;
75248;SDS011;63845;55.688;37.578;2022-11-03T05:05:14;5.57;;;3.63;;
75248;SDS011;63845;55.688;37.578;2022-11-03T05:07:42;5.40;;;2.83;;
75248;SDS011;63845;55.688;37.578;2022-11-03T05:10:11;4.25;;;3.05;;
75248;SDS011;63845;55.688;37.578;2022-11-03T05:12:39;4.32;;;2.97;;
75248;SDS011;63845;55.688;37.578;2022-11-03T05:15:06;7.07;;;3.00;;
75248;SDS011;63845;55.688;37.578;2022-11-03T05:17:45;5.28;;;3.70;;
75248;SDS011;63845;55.688;37.578;2022-11-03T05:20:22;4.63;;;2.90;;
75248;SDS011;63845;55.688;37.578;2022-11-03T05:23:05;4.05;;;2.70;;
75248;SDS011;63845;55.688;37.578;2022-11-03T05:25:34;3.90;;;2.25;;
75248;SDS011;63845;55.688;37.578;2022-11-03T05:28:39;3.65;;;2.40;;
75248;SDS011;63845;55.688;37.578;2022-11-03T05:33:52;3.38;;;2.03;;
75248;SDS011;63845;55.688;37.578;2022-11-03T05:36:23;4.10;;;2.90;;
75248;SDS011;63845;55.688;37.578;2022-11-03T05:38:53;3.90;;;2.30;;
75248;SDS011;63845;55.688;37.578;2022-11-03T05:41:26;3.80;;;2.55;;
75248;SDS011;63845;55.688;37.578;2022-11-03T05:44:01;5.13;;;2.67;;
75248;SDS011;63845;55.688;37.578;2022-11-03T05:46:32;3.03;;;2.30;;
75248;SDS011;63845;55.688;37.578;2022-11-03T05:49:00;3.17;;;2.10;;
75248;SDS011;63845;55.688;37.578;2022-11-03T05:51:28;3.25;;;2.38;;
75248;SDS011;63845;55.688;37.578;2022-11-03T05:54:03;5.70;;;2.78;;
75248;SDS011;63845;55.688;37.578;2022-11-03T05:56:31;3.20;;;2.25;;
75248;SDS011;63845;55.688;37.578;2022-11-03T05:58:57;4.72;;;2.75;;
75248;SDS011;63845;55.688;37.578;2022-11-03T06:04:11;4.45;;;2.60;;
75248;SDS011;63845;55.688;37.578;2022-11-03T06:06:41;4.78;;;2.60;;
75248;SDS011;63845;55.688;37.578;2022-11-03T06:09:10;9.50;;;2.58;;
75248;SDS011;63845;55.688;37.578;2022-11-03T06:11:40;4.95;;;2.50;;
75248;SDS011;63845;55.688;37.578;2022-11-03T06:14:19;4.80;;;2.30;;
75248;SDS011;63845;55.688;37.578;2022-11-03T06:19:42;9.15;;;3.00;;
75248;SDS011;63845;55.688;37.578;2022-11-03T06:24:50;3.95;;;2.53;;
75248;SDS011;63845;55.688;37.578;2022-11-03T06:27:21;6.57;;;3.67;;
75248;SDS011;63845;55.688;37.578;2022-11-03T06:29:52;5.80;;;3.67;;
75248;SDS011;63845;55.688;37.578;2022-11-03T06:32:23;9.80;;;3.53;;
75248;SDS011;63845;55.688;37.578;2022-11-03T06:34:50;5.20;;;4.07;;
75248;SDS011;63845;55.688;37.578;2022-11-03T06:39:46;7.97;;;3.40;;
75248;SDS011;63845;55.688;37.578;2022-11-03T06:42:13;8.68;;;3.20;;
75248;SDS011;63845;55.688;37.578;2022-11-03T06:44:41;7.15;;;3.50;;
75248;SDS011;63845;55.688;37.578;2022-11-03T06:47:18;7.47;;;3.20;;
75248;SDS011;63845;55.688;37.578;2022-11-03T06:49:47;5.63;;;3.40;;
75248;SDS011;63845;55.688;37.578;2022-11-03T06:52:36;5.97;;;3.70;;
75248;SDS011;63845;55.688;37.578;2022-11-03T06:57:38;7.10;;;3.80;;
75248;SDS011;63845;55.688;37.578;2022-11-03T07:00:14;10.30;;;4.10;;
75248;SDS011;63845;55.688;37.578;2022-11-03T07:05:22;8.23;;;4.20;;
75248;SDS011;63845;55.688;37.578;2022-11-03T07:07:50;8.90;;;4.60;;
75248;SDS011;63845;55.688;37.578;2022-11-03T07:10:17;8.85;;;5.00;;
75248;SDS011;63845;55.688;37.578;2022-11-03T07:12:43;8.43;;;4.88;;
75248;SDS011;63845;55.688;37.578;2022-11-03T07:15:43;9.10;;;4.65;;
75248;SDS011;63845;55.688;37.578;2022-11-03T07:18:04;9.57;;;4.80;;
75248;SDS011;63845;55.688;37.578;2022-11-03T07:20:39;8.27;;;4.70;;
75248;SDS011;63845;55.688;37.578;2022-11-03T07:23:06;9.45;;;5.28;;
75248;SDS011;63845;55.688;37.578;2022-11-03T07:25:37;8.55;;;5.47;;
75248;SDS011;63845;55.688;37.578;2022-11-03T07:28:02;9.95;;;5.43;;
75248;SDS011;63845;55.688;37.578;2022-11-03T07:30:29;11.90;;;5.43;;
75248;SDS011;63845;55.688;37.578;2022-11-03T07:33:09;13.25;;;5.50;;
75248;SDS011;63845;55.688;37.578;2022-11-03T07:35:39;13.82;;;5.45;;
75248;SDS011;63845;55.688;37.578;2022-11-03T07:38:13;8.18;;;4.82;;
75248;SDS011;63845;55.688;37.578;2022-11-03T07:40:42;11.50;;;5.57;;
75248;SDS011;63845;55.688;37.578;2022-11-03T07:43:14;8.48;;;5.25;;
75248;SDS011;63845;55.688;37.578;2022-11-03T07:45:50;12.13;;;5.75;;
75248;SDS011;63845;55.688;37.578;2022-11-03T07:50:57;11.18;;;5.20;;
75248;SDS011;63845;55.688;37.578;2022-11-03T07:56:01;11.25;;;5.35;;
75248;SDS011;63845;55.688;37.578;2022-11-03T07:58:39;6.00;;;3.92;;
75248;SDS011;63845;55.688;37.578;2022-11-03T08:01:24;11.50;;;4.38;;
75248;SDS011;63845;55.688;37.578;2022-11-03T08:03:51;8.20;;;4.10;;
75248;SDS011;63845;55.688;37.578;2022-11-03T08:06:20;9.88;;;5.55;;
75248;SDS011;63845;55.688;37.578;2022-11-03T08:08:45;8.68;;;5.10;;
75248;SDS011;63845;55.688;37.578;2022-11-03T08:11:10;9.95;;;5.10;;
75248;SDS011;63845;55.688;37.578;2022-11-03T08:13:36;9.45;;;4.78;;
75248;SDS011;63845;55.688;37.578;2022-11-03T08:16:01;8.90;;;4.60;;
75248;SDS011;63845;55.688;37.578;2022-11-03T08:18:27;8.23;;;3.72;;
75248;SDS011;63845;55.688;37.578;2022-11-03T08:20:53;7.05;;;4.30;;
75248;SDS011;63845;55.688;37.578;2022-11-03T08:23:18;8.65;;;3.65;;
75248;SDS011;63845;55.688;37.578;2022-11-03T08:25:44;7.50;;;3.78;;
75248;SDS011;63845;55.688;37.578;2022-11-03T08:28:09;8.73;;;4.25;;
75248;SDS011;63845;55.688;37.578;2022-11-03T08:30:35;6.53;;;4.32;;
75248;SDS011;63845;55.688;37.578;2022-11-03T08:33:00;8.43;;;4.53;;
75248;SDS011;63845;55.688;37.578;2022-11-03T08:35:26;7.22;;;4.60;;
75248;SDS011;63845;55.688;37.578;2022-11-03T08:37:51;7.55;;;4.63;;
75248;SDS011;63845;55.688;37.578;2022-11-03T08:40:17;9.00;;;4.57;;
75248;SDS011;63845;55.688;37.578;2022-11-03T08:42:43;8.57;;;4.43;;
75248;SDS011;63845;55.688;37.578;2022-11-03T08:45:09;8.32;;;4.63;;
75248;SDS011;63845;55.688;37.578;2022-11-03T08:47:35;7.05;;;4.45;;
75248;SDS011;63845;55.688;37.578;2022-11-03T08:50:01;7.90;;;4.40;;
75248;SDS011;63845;55.688;37.578;2022-11-03T08:52:28;9.40;;;4.20;;
75248;SDS011;63845;55.688;37.578;2022-11-03T08:54:54;8.23;;;4.30;;
75248;SDS011;63845;55.688;37.578;2022-11-03T08:57:19;8.50;;;4.57;;
75248;SDS011;63845;55.688;37.578;2022-11-03T08:59:45;8.23;;;4.30;;
75248;SDS011;63845;55.688;37.578;2022-11-03T09:02:10;9.40;;;4.32;;
75248;SDS011;63845;55.688;37.578;2022-11-03T09:04:36;7.05;;;4.20;;
75248;SDS011;63845;55.688;37.578;2022-11-03T09:07:01;7.40;;;4.57;;
75248;SDS011;63845;55.688;37.578;2022-11-03T09:09:27;6.78;;;4.30;;
75248;SDS011;63845;55.688;37.578;2022-11-03T09:11:52;6.97;;;4.07;;
75248;SDS011;63845;55.688;37.578;2022-11-03T09:14:18;7.30;;;4.30;;
75248;SDS011;63845;55.688;37.578;2022-11-03T09:16:46;9.43;;;4.47;;
75248;SDS011;63845;55.688;37.578;2022-11-03T09:19:11;7.15;;;4.22;;
75248;SDS011;63845;55.688;37.578;2022-11-03T09:21:37;5.72;;;3.70;;
75248;SDS011;63845;55.688;37.578;2022-11-03T09:24:05;8.80;;;4.38;;
75248;SDS011;63845;55.688;37.578;2022-11-03T09:26:31;9.70;;;4.25;;
75248;SDS011;63845;55.688;37.578;2022-11-03T09:28:57;7.03;;;3.80;;
75248;SDS011;63845;55.688;37.578;2022-11-03T09:31:26;8.82;;;3.88;;
75248;SDS011;63845;55.688;37.578;2022-11-03T09:33:53;8.75;;;3.97;;
75248;SDS011;63845;55.688;37.578;2022-11-03T09:36:19;7.85;;;4.35;;
75248;SDS011;63845;55.688;37.578;2022-11-03T09:38:44;11.52;;;4.53;;
75248;SDS011;63845;55.688;37.578;2022-11-03T09:41:10;5.68;;;3.97;;
75248;SDS011;63845;55.688;37.578;2022-11-03T09:43:47;6.40;;;4.20;;
75248;SDS011;63845;55.688;37.578;2022-11-03T09:46:13;7.57;;;3.80;;
75248;SDS011;63845;55.688;37.578;2022-11-03T09:48:41;6.53;;;3.95;;
75248;SDS011;63845;55.688;37.578;2022-11-03T09:51:12;9.32;;;4.00;;
75248;SDS011;63845;55.688;37.578;2022-11-03T09:53:41;9.13;;;3.70;;
75248;SDS011;63845;55.688;37.578;2022-11-03T09:56:08;7.65;;;4.18;;
75248;SDS011;63845;55.688;37.578;2022-11-03T09:58:34;6.10;;;3.97;;
75248;SDS011;63845;55.688;37.578;2022-11-03T10:01:00;9.70;;;4.10;;
75248;SDS011;63845;55.688;37.578;2022-11-03T10:03:26;8.45;;;4.35;;
75248;SDS011;63845;55.688;37.578;2022-11-03T10:05:53;9.77;;;4.10;;
75248;SDS011;63845;55.688;37.578;2022-11-03T10:08:20;9.75;;;4.65;;
75248;SDS011;63845;55.688;37.578;2022-11-03T10:10:51;8.52;;;5.20;;
75248;SDS011;63845;55.688;37.578;2022-11-03T10:14:00;7.63;;;4.97;;
75248;SDS011;63845;55.688;37.578;2022-11-03T10:16:16;11.50;;;4.70;;
75248;SDS011;63845;55.688;37.578;2022-11-03T10:18:44;9.82;;;4.88;;
75248;SDS011;63845;55.688;37.578;2022-11-03T10:23:47;7.90;;;4.60;;
75248;SDS011;63845;55.688;37.578;2022-11-03T10:26:15;6.13;;;3.95;;
75248;SDS011;63845;55.688;37.578;2022-11-03T10:29:03;7.65;;;4.00;;
75248;SDS011;63845;55.688;37.578;2022-11-03T10:31:31;7.60;;;4.07;;
75248;SDS011;63845;55.688;37.578;2022-11-03T10:34:01;8.82;;;3.95;;
75248;SDS011;63845;55.688;37.578;2022-11-03T10:36:27;8.38;;;4.10;;
75248;SDS011;63845;55.688;37.578;2022-11-03T10:38:54;9.85;;;4.30;;
75248;SDS011;63845;55.688;37.578;2022-11-03T10:41:21;8.13;;;3.90;;
75248;SDS011;63845;55.688;37.578;2022-11-03T10:44:04;5.22;;;3.75;;
75248;SDS011;63845;55.688;37.578;2022-11-03T10:46:30;8.32;;;4.20;;
75248;SDS011;63845;55.688;37.578;2022-11-03T10:49:00;8.15;;;3.80;;
75248;SDS011;63845;55.688;37.578;2022-11-03T10:51:38;5.40;;;3.55;;
75248;SDS011;63845;55.688;37.578;2022-11-03T10:54:05;6.35;;;3.90;;
75248;SDS011;63845;55.688;37.578;2022-11-03T10:56:34;8.13;;;3.65;;
75248;SDS011;63845;55.688;37.578;2022-11-03T10:59:01;7.25;;;3.95;;
75248;SDS011;63845;55.688;37.578;2022-11-03T11:01:26;10.80;;;4.43;;
75248;SDS011;63845;55.688;37.578;2022-11-03T11:03:52;8.13;;;3.97;;
75248;SDS011;63845;55.688;37.578;2022-11-03T11:08:45;9.82;;;3.97;;
75248;SDS011;63845;55.688;37.578;2022-11-03T11:11:15;6.35;;;3.92;;
75248;SDS011;63845;55.688;37.578;2022-11-03T11:13:42;8.30;;;3.95;;
75248;SDS011;63845;55.688;37.578;2022-11-03T11:19:11;7.05;;;4.18;;
75248;SDS011;63845;55.688;37.578;2022-11-03T11:24:02;8.55;;;3.88;;
75248;SDS011;63845;55.688;37.578;2022-11-03T11:31:35;10.65;;;4.47;;
75248;SDS011;63845;55.688;37.578;2022-11-03T11:42:15;6.18;;;4.30;;
75248;SDS011;63845;55.688;37.578;2022-11-03T11:49:47;9.27;;;4.22;;
75248;SDS011;63845;55.688;37.578;2022-11-03T11:53:13;8.27;;;4.97;;
75248;SDS011;63845;55.688;37.578;2022-11-03T11:55:25;9.38;;;4.88;;
75248;SDS011;63845;55.688;37.578;2022-11-03T11:57:52;9.02;;;4.88;;
75248;SDS011;63845;55.688;37.578;2022-11-03T12:00:28;9.30;;;4.88;;
75248;SDS011;63845;55.688;37.578;2022-11-03T12:02:56;11.05;;;4.55;;
75248;SDS011;63845;55.688;37.578;2022-11-03T12:05:30;12.55;;;4.53;;
75248;SDS011;63845;55.688;37.578;2022-11-03T12:07:57;10.38;;;4.53;;
75248;SDS011;63845;55.688;37.578;2022-11-03T12:10:24;6.38;;;4.45;;
75248;SDS011;63845;55.688;37.578;2022-11-03T12:12:56;8.48;;;4.93;;
75248;SDS011;63845;55.688;37.578;2022-11-03T12:18:35;9.32;;;5.25;;
75248;SDS011;63845;55.688;37.578;2022-11-03T12:23:36;13.50;;;5.60;;
75248;SDS011;63845;55.688;37.578;2022-11-03T12:29:06;10.35;;;5.10;;
75248;SDS011;63845;55.688;37.578;2022-11-03T12:31:32;8.73;;;5.07;;
75248;SDS011;63845;55.688;37.578;2022-11-03T12:33:57;10.35;;;5.45;;
75248;SDS011;63845;55.688;37.578;2022-11-03T12:36:23;11.90;;;6.05;;
75248;SDS011;63845;55.688;37.578;2022-11-03T12:38:48;8.23;;;5.22;;
75248;SDS011;63845;55.688;37.578;2022-11-03T12:41:14;9.07;;;5.25;;
75248;SDS011;63845;55.688;37.578;2022-11-03T12:43:48;9.90;;;5.63;;
75248;SDS011;63845;55.688;37.578;2022-11-03T12:46:18;8.45;;;5.18;;
75248;SDS011;63845;55.688;37.578;2022-11-03T12:48:44;10.45;;;6.28;;
75248;SDS011;63845;55.688;37.578;2022-11-03T12:51:33;10.40;;;5.28;;
75248;SDS011;63845;55.688;37.578;2022-11-03T12:53:57;9.02;;;5.70;;
75248;SDS011;63845;55.688;37.578;2022-11-03T12:56:23;9.57;;;5.35;;
75248;SDS011;63845;55.688;37.578;2022-11-03T12:58:48;10.98;;;5.47;;
75248;SDS011;63845;55.688;37.578;2022-11-03T13:01:14;11.93;;;5.82;;
75248;SDS011;63845;55.688;37.578;2022-11-03T13:03:39;11.13;;;6.07;;
75248;SDS011;63845;55.688;37.578;2022-11-03T13:06:05;11.02;;;5.80;;
75248;SDS011;63845;55.688;37.578;2022-11-03T13:08:34;9.70;;;5.97;;
75248;SDS011;63845;55.688;37.578;2022-11-03T13:10:59;12.98;;;6.32;;
75248;SDS011;63845;55.688;37.578;2022-11-03T13:13:25;12.50;;;6.57;;
75248;SDS011;63845;55.688;37.578;2022-11-03T13:15:51;9.85;;;6.30;;
75248;SDS011;63845;55.688;37.578;2022-11-03T13:18:20;12.80;;;6.13;;
75248;SDS011;63845;55.688;37.578;2022-11-03T13:20:46;14.70;;;6.43;;
75248;SDS011;63845;55.688;37.578;2022-11-03T13:23:11;14.20;;;7.03;;
75248;SDS011;63845;55.688;37.578;2022-11-03T13:25:37;13.25;;;6.57;;
75248;SDS011;63845;55.688;37.578;2022-11-03T13:28:02;14.73;;;7.32;;
75248;SDS011;63845;55.688;37.578;2022-11-03T13:30:29;15.10;;;7.57;;
75248;SDS011;63845;55.688;37.578;2022-11-03T13:32:55;13.68;;;7.00;;
75248;SDS011;63845;55.688;37.578;2022-11-03T13:35:21;16.63;;;7.85;;
75248;SDS011;63845;55.688;37.578;2022-11-03T13:37:47;13.25;;;7.00;;
75248;SDS011;63845;55.688;37.578;2022-11-03T13:40:13;15.70;;;7.47;;
75248;SDS011;63845;55.688;37.578;2022-11-03T13:42:39;12.15;;;7.00;;
75248;SDS011;63845;55.688;37.578;2022-11-03T13:45:05;18.13;;;7.50;;
75248;SDS011;63845;55.688;37.578;2022-11-03T13:47:32;12.80;;;7.60;;
75248;SDS011;63845;55.688;37.578;2022-11-03T13:49:57;17.05;;;7.25;;
75248;SDS011;63845;55.688;37.578;2022-11-03T13:52:25;12.43;;;7.00;;
75248;SDS011;63845;55.688;37.578;2022-11-03T13:54:51;13.75;;;6.75;;
75248;SDS011;63845;55.688;37.578;2022-11-03T13:57:17;15.63;;;7.05;;
75248;SDS011;63845;55.688;37.578;2022-11-03T13:59:43;16.95;;;7.30;;
75248;SDS011;63845;55.688;37.578;2022-11-03T14:02:09;17.02;;;6.90;;
75248;SDS011;63845;55.688;37.578;2022-11-03T14:04:35;12.70;;;7.22;;
75248;SDS011;63845;55.688;37.578;2022-11-03T14:07:02;13.23;;;7.10;;
75248;SDS011;63845;55.688;37.578;2022-11-03T14:09:28;13.18;;;7.35;;
75248;SDS011;63845;55.688;37.578;2022-11-03T14:11:54;16.50;;;8.23;;
75248;SDS011;63845;55.688;37.578;2022-11-03T14:14:37;17.90;;;7.75;;
75248;SDS011;63845;55.688;37.578;2022-11-03T14:17:03;14.90;;;7.65;;
75248;SDS011;63845;55.688;37.578;2022-11-03T14:19:28;12.52;;;7.22;;
75248;SDS011;63845;55.688;37.578;2022-11-03T14:21:54;15.15;;;7.03;;
75248;SDS011;63845;55.688;37.578;2022-11-03T14:24:19;16.67;;;7.05;;
75248;SDS011;63845;55.688;37.578;2022-11-03T14:26:45;14.90;;;7.22;;
75248;SDS011;63845;55.688;37.578;2022-11-03T14:29:10;16.50;;;7.90;;
75248;SDS011;63845;55.688;37.578;2022-11-03T14:31:35;15.05;;;7.18;;
75248;SDS011;63845;55.688;37.578;2022-11-03T14:34:01;12.43;;;6.63;;
75248;SDS011;63845;55.688;37.578;2022-11-03T14:36:27;20.23;;;7.05;;
75248;SDS011;63845;55.688;37.578;2022-11-03T14:38:52;12.43;;;6.57;;
75248;SDS011;63845;55.688;37.578;2022-11-03T14:41:17;14.25;;;6.75;;
75248;SDS011;63845;55.688;37.578;2022-11-03T14:44:01;10.45;;;6.30;;
75248;SDS011;63845;55.688;37.578;2022-11-03T14:46:30;11.45;;;6.95;;
75248;SDS011;63845;55.688;37.578;2022-11-03T14:48:56;11.63;;;6.47;;
75248;SDS011;63845;55.688;37.578;2022-11-03T14:51:22;10.63;;;5.88;;
75248;SDS011;63845;55.688;37.578;2022-11-03T14:53:47;12.50;;;5.78;;
75248;SDS011;63845;55.688;37.578;2022-11-03T14:56:13;11.15;;;5.47;;
75248;SDS011;63845;55.688;37.578;2022-11-03T14:58:39;19.48;;;6.15;;
75248;SDS011;63845;55.688;37.578;2022-11-03T15:01:04;12.02;;;5.97;;
75248;SDS011;63845;55.688;37.578;2022-11-03T15:03:30;12.23;;;5.45;;
75248;SDS011;63845;55.688;37.578;2022-11-03T15:05:55;11.65;;;5.40;;
75248;SDS011;63845;55.688;37.578;2022-11-03T15:08:21;12.48;;;6.10;;
75248;SDS011;63845;55.688;37.578;2022-11-03T15:10:48;10.40;;;5.22;;
75248;SDS011;63845;55.688;37.578;2022-11-03T15:13:14;12.18;;;5.53;;
75248;SDS011;63845;55.688;37.578;2022-11-03T15:15:40;8.43;;;4.25;;
75248;SDS011;63845;55.688;37.578;2022-11-03T15:18:06;10.43;;;4.40;;
75248;SDS011;63845;55.688;37.578;2022-11-03T15:20:38;7.10;;;4.63;;
75248;SDS011;63845;55.688;37.578;2022-11-03T15:23:04;8.40;;;4.45;;
75248;SDS011;63845;55.688;37.578;2022-11-03T15:25:30;9.85;;;3.97;;
75248;SDS011;63845;55.688;37.578;2022-11-03T15:27:56;7.10;;;3.80;;
75248;SDS011;63845;55.688;37.578;2022-11-03T15:30:22;6.13;;;4.40;;
75248;SDS011;63845;55.688;37.578;2022-11-03T15:32:48;9.10;;;4.47;;
75248;SDS011;63845;55.688;37.578;2022-11-03T15:35:13;6.90;;;4.40;;
75248;SDS011;63845;55.688;37.578;2022-11-03T15:37:39;9.05;;;4.47;;
75248;SDS011;63845;55.688;37.578;2022-11-03T15:40:06;10.20;;;4.22;;
75248;SDS011;63845;55.688;37.578;2022-11-03T15:42:34;9.82;;;4.50;;
75248;SDS011;63845;55.688;37.578;2022-11-03T15:45:00;7.50;;;3.60;;
75248;SDS011;63845;55.688;37.578;2022-11-03T15:47:28;8.38;;;3.67;;
75248;SDS011;63845;55.688;37.578;2022-11-03T15:49:54;8.60;;;4.50;;
75248;SDS011;63845;55.688;37.578;2022-11-03T15:52:19;7.57;;;4.28;;
75248;SDS011;63845;55.688;37.578;2022-11-03T15:54:45;10.65;;;4.22;;
75248;SDS011;63845;55.688;37.578;2022-11-03T15:57:11;7.78;;;3.38;;
75248;SDS011;63845;55.688;37.578;2022-11-03T15:59:36;7.60;;;3.80;;
75248;SDS011;63845;55.688;37.578;2022-11-03T16:02:03;5.95;;;3.90;;
75248;SDS011;63845;55.688;37.578;2022-11-03T16:04:28;6.40;;;3.55;;
75248;SDS011;63845;55.688;37.578;2022-11-03T16:06:54;10.85;;;3.60;;